Time;durP1;ratioP1;P1;durP2;ratioP2;P2;SDS_P1;SDS_P2;PMS_P1;PMS_P2;Temp;Humidity;BMP_temperature;BMP_pressure;BME280_temperature;BME280_humidity;BME280_pressure;Samples;Min_cycle;Max_cycle;Signal;HPM_P1;HPM_P2
2021/07/10 00:01:14;;;;;;;;;;;16.30;99.90;;;;;;5066222;28;20007;-50
2021/07/10 00:03:39;;;;;;;;;;;16.30;99.90;;;;;;5073456;28;20011;-50
2021/07/10 00:06:05;;;;;;;;;;;16.30;99.90;;;;;;5065758;28;19916;-45
2021/07/10 00:08:31;;;;;;;;;;;16.30;99.90;;;;;;5072035;28;19915;-50
2021/07/10 00:10:56;;;;;;;;;;;16.30;99.90;;;;;;5072609;28;20375;-52
2021/07/10 00:13:22;;;;;;;;;;;16.30;99.90;;;;;;5068945;28;19915;-48
2021/07/10 00:15:47;;;;;;;;;;;16.30;99.90;;;;;;5073130;28;19912;-51
2021/07/10 00:18:13;;;;;;;;;;;16.30;99.90;;;;;;5048010;28;19916;-48
2021/07/10 00:20:38;;;;;;;;;;;16.30;99.90;;;;;;5065157;28;19908;-46
2021/07/10 00:23:04;;;;;;;;;;;16.30;99.90;;;;;;5065589;28;19918;-49
2021/07/10 00:25:29;;;;;;;;;;;16.30;99.90;;;;;;5071043;28;20382;-48
2021/07/10 00:27:55;;;;;;;;;;;16.30;99.90;;;;;;5072146;28;19913;-48
2021/07/10 00:30:21;;;;;;;;;;;16.30;99.90;;;;;;5067940;28;20023;-52
2021/07/10 00:32:47;;;;;;;;;;;16.20;99.90;;;;;;5072830;28;19915;-51
2021/07/10 00:35:13;;;;;;;;;;;16.20;99.90;;;;;;5065372;28;19916;-47
2021/07/10 00:37:39;;;;;;;;;;;16.20;99.90;;;;;;5073247;28;19909;-53
2021/07/10 00:40:05;;;;;;;;;;;16.20;99.90;;;;;;5065389;28;20402;-48
2021/07/10 00:42:31;;;;;;;;;;;16.10;99.90;;;;;;5070780;28;19912;-50
2021/07/10 00:44:56;;;;;;;;;;;16.20;99.90;;;;;;5071364;28;20381;-47
2021/07/10 00:47:22;;;;;;;;;;;16.10;99.90;;;;;;5066633;28;19928;-49
2021/07/10 00:49:47;;;;;;;;;;;16.10;99.90;;;;;;5072486;28;19938;-48
2021/07/10 00:52:13;;;;;;;;;;;16.10;99.90;;;;;;5064789;28;19909;-48
2021/07/10 00:54:38;;;;;;;;;;;16.10;99.90;;;;;;5066557;28;20319;-51
2021/07/10 00:57:04;;;;;;;;;;;16.10;99.90;;;;;;5069152;28;19916;-46
2021/07/10 00:59:31;;;;;;;;;;;16.20;99.90;;;;;;5065484;28;19978;-46
2021/07/10 01:01:57;;;;;;;;;;;16.10;99.90;;;;;;5067718;28;20567;-47
2021/07/10 01:04:22;;;;;;;;;;;16.20;99.90;;;;;;5066261;28;19909;-51
2021/07/10 01:06:48;;;;;;;;;;;16.10;99.90;;;;;;5067992;28;19913;-47
2021/07/10 01:09:14;;;;;;;;;;;16.10;99.90;;;;;;5071812;28;19993;-49
2021/07/10 01:11:39;;;;;;;;;;;16.10;99.90;;;;;;5067733;28;19915;-50
2021/07/10 01:14:05;;;;;;;;;;;16.10;99.90;;;;;;5070548;28;19995;-47
2021/07/10 01:16:31;;;;;;;;;;;16.10;99.90;;;;;;5066658;28;19913;-50
2021/07/10 01:18:56;;;;;;;;;;;16.00;99.90;;;;;;5069729;28;20345;-46
2021/07/10 01:21:22;;;;;;;;;;;16.00;99.90;;;;;;5067518;28;19913;-49
2021/07/10 01:23:48;;;;;;;;;;;16.00;99.90;;;;;;5067520;28;19916;-50
2021/07/10 01:26:14;;;;;;;;;;;16.00;99.90;;;;;;5071058;28;20407;-48
2021/07/10 01:28:39;;;;;;;;;;;16.00;99.90;;;;;;5068148;28;19924;-45
2021/07/10 01:31:05;;;;;;;;;;;15.90;99.90;;;;;;5070172;28;20243;-49
2021/07/10 01:33:31;;;;;;;;;;;15.90;99.90;;;;;;5066454;28;19908;-49
2021/07/10 01:35:56;;;;;;;;;;;15.90;99.90;;;;;;5068007;28;20454;-52
2021/07/10 01:38:22;;;;;;;;;;;15.80;99.90;;;;;;5042316;28;20093;-47
2021/07/10 01:40:47;;;;;;;;;;;15.80;99.90;;;;;;5049017;28;19913;-49
2021/07/10 01:43:13;;;;;;;;;;;15.80;99.90;;;;;;5070458;28;19912;-52
2021/07/10 01:45:44;;;;;;;;;;;15.80;99.90;;;;;;5048984;28;19909;-48
2021/07/10 01:48:10;;;;;;;;;;;15.70;99.90;;;;;;5072453;22;19932;-53
2021/07/10 01:50:37;;;;;;;;;;;15.70;99.90;;;;;;5051166;28;19912;-53
2021/07/10 01:53:02;;;;;;;;;;;15.70;99.90;;;;;;5051026;28;20397;-53
2021/07/10 01:55:28;;;;;;;;;;;15.70;99.90;;;;;;5051005;28;19917;-52
2021/07/10 01:57:54;;;;;;;;;;;15.70;99.90;;;;;;5050831;28;19948;-52
2021/07/10 02:00:21;;;;;;;;;;;15.70;99.90;;;;;;5050910;28;19916;-53
2021/07/10 02:02:47;;;;;;;;;;;15.70;99.90;;;;;;5051021;28;20248;-50
2021/07/10 02:05:12;;;;;;;;;;;15.70;99.90;;;;;;5050886;28;19909;-51
2021/07/10 02:07:38;;;;;;;;;;;15.70;99.90;;;;;;5051269;28;19909;-54
2021/07/10 02:10:08;;;;;;;;;;;15.70;99.90;;;;;;5050597;28;19908;-53
2021/07/10 02:12:33;;;;;;;;;;;15.70;99.90;;;;;;5050823;28;19909;-55
2021/07/10 02:14:59;;;;;;;;;;;15.70;99.90;;;;;;5050414;28;19916;-52
2021/07/10 02:17:24;;;;;;;;;;;15.60;99.90;;;;;;5050776;28;19909;-52
2021/07/10 02:19:50;;;;;;;;;;;15.60;99.90;;;;;;5049323;28;19966;-54
2021/07/10 02:22:16;;;;;;;;;;;15.60;99.90;;;;;;5050687;28;19920;-52
2021/07/10 02:24:41;;;;;;;;;;;15.60;99.90;;;;;;5050386;28;20003;-54
2021/07/10 02:27:07;;;;;;;;;;;15.50;99.90;;;;;;5050902;28;19947;-52
2021/07/10 02:29:32;;;;;;;;;;;15.50;99.90;;;;;;5050706;28;19916;-50
2021/07/10 02:31:58;;;;;;;;;;;15.50;99.90;;;;;;5032513;28;20340;-51
2021/07/10 02:34:23;;;;;;;;;;;15.50;99.90;;;;;;5050710;28;19909;-51
2021/07/10 02:36:49;;;;;;;;;;;15.50;99.90;;;;;;5050356;28;19913;-54
2021/07/10 02:39:14;;;;;;;;;;;15.50;99.90;;;;;;5050574;28;19916;-51
2021/07/10 02:41:40;;;;;;;;;;;15.50;99.90;;;;;;5050281;28;19967;-51
2021/07/10 02:44:06;;;;;;;;;;;15.50;99.90;;;;;;5050158;28;19916;-53
2021/07/10 02:46:31;;;;;;;;;;;15.50;99.90;;;;;;5050179;28;20490;-51
2021/07/10 02:48:58;;;;;;;;;;;15.50;99.90;;;;;;5050491;28;19916;-51
2021/07/10 02:51:25;;;;;;;;;;;15.50;99.90;;;;;;5050646;28;20371;-54
2021/07/10 02:53:50;;;;;;;;;;;15.50;99.90;;;;;;5050050;28;19948;-53
2021/07/10 02:56:15;;;;;;;;;;;15.50;99.90;;;;;;5049976;28;19987;-53
2021/07/10 02:58:41;;;;;;;;;;;15.50;99.90;;;;;;5049920;28;19913;-54
2021/07/10 03:01:06;;;;;;;;;;;15.50;99.90;;;;;;5065196;28;20004;-50
2021/07/10 03:03:32;;;;;;;;;;;15.50;99.90;;;;;;5050451;28;20276;-50
2021/07/10 03:05:57;;;;;;;;;;;15.50;99.90;;;;;;5049748;28;19932;-50
2021/07/10 03:08:23;;;;;;;;;;;15.50;99.90;;;;;;5050196;28;19908;-50
2021/07/10 03:10:48;;;;;;;;;;;15.50;99.90;;;;;;5054394;28;19912;-51
2021/07/10 03:13:15;;;;;;;;;;;15.50;99.90;;;;;;5056598;28;19963;-51
2021/07/10 03:15:40;;;;;;;;;;;15.50;99.90;;;;;;5056299;28;19909;-50
2021/07/10 03:18:06;;;;;;;;;;;15.50;99.90;;;;;;5056646;28;19999;-51
2021/07/10 03:20:31;;;;;;;;;;;15.50;99.90;;;;;;5056509;28;19909;-50
2021/07/10 03:22:57;;;;;;;;;;;15.50;99.90;;;;;;5056311;28;19913;-55
2021/07/10 03:25:23;;;;;;;;;;;15.50;99.90;;;;;;5056241;28;19909;-50
2021/07/10 03:27:49;;;;;;;;;;;15.50;99.90;;;;;;5056165;28;19908;-50
2021/07/10 03:30:16;;;;;;;;;;;15.40;99.90;;;;;;5056605;28;19931;-51
2021/07/10 03:32:42;;;;;;;;;;;15.50;99.90;;;;;;5056901;28;19920;-49
2021/07/10 03:35:08;;;;;;;;;;;15.50;99.90;;;;;;5056261;28;19908;-52
2021/07/10 03:37:34;;;;;;;;;;;15.50;99.90;;;;;;5056645;28;19915;-50
2021/07/10 03:39:59;;;;;;;;;;;15.50;99.90;;;;;;5056276;28;20420;-50
2021/07/10 03:42:25;;;;;;;;;;;15.50;99.90;;;;;;5056264;28;19916;-50
2021/07/10 03:44:50;;;;;;;;;;;15.50;99.90;;;;;;5055856;28;20354;-52
2021/07/10 03:47:16;;;;;;;;;;;15.50;99.90;;;;;;5056208;28;19932;-51
2021/07/10 03:49:42;;;;;;;;;;;15.50;99.90;;;;;;5038462;28;19956;-49
2021/07/10 03:52:07;;;;;;;;;;;15.50;99.90;;;;;;5056290;28;19935;-51
2021/07/10 03:54:33;;;;;;;;;;;15.50;99.90;;;;;;5056117;28;19916;-52
2021/07/10 03:56:59;;;;;;;;;;;15.50;99.90;;;;;;5055876;28;19912;-53
2021/07/10 03:59:24;;;;;;;;;;;15.50;99.90;;;;;;5056328;28;20094;-52
2021/07/10 04:01:49;;;;;;;;;;;15.50;99.90;;;;;;5056059;28;20008;-51
2021/07/10 04:04:15;;;;;;;;;;;15.50;99.90;;;;;;5056656;28;19912;-50
2021/07/10 04:06:40;;;;;;;;;;;15.50;99.90;;;;;;5056086;28;19915;-51
2021/07/10 04:09:06;;;;;;;;;;;15.50;99.90;;;;;;5056236;28;19909;-50
2021/07/10 04:11:31;;;;;;;;;;;15.50;99.90;;;;;;5056206;28;19962;-52
2021/07/10 04:13:57;;;;;;;;;;;15.50;99.90;;;;;;5055973;28;19991;-52
2021/07/10 04:16:22;;;;;;;;;;;15.50;99.90;;;;;;5055897;28;19915;-50
2021/07/10 04:18:48;;;;;;;;;;;15.50;99.90;;;;;;5056158;28;19912;-50
2021/07/10 04:21:14;;;;;;;;;;;15.50;99.90;;;;;;5055006;28;19916;-50
2021/07/10 04:23:40;;;;;;;;;;;15.50;99.90;;;;;;5035064;28;19916;-51
2021/07/10 04:26:06;;;;;;;;;;;15.50;99.90;;;;;;5052236;28;19909;-52
2021/07/10 04:28:31;;;;;;;;;;;15.50;99.90;;;;;;5034862;28;19935;-51
2021/07/10 04:30:56;;;;;;;;;;;15.50;99.90;;;;;;5052850;28;19962;-50
2021/07/10 04:33:22;;;;;;;;;;;15.50;99.90;;;;;;5050725;28;19913;-53
2021/07/10 04:35:47;;;;;;;;;;;15.50;99.90;;;;;;5031911;28;20478;-52
2021/07/10 04:38:14;;;;;;;;;;;15.50;99.90;;;;;;5032755;28;19908;-50
2021/07/10 04:40:40;;;;;;;;;;;15.50;99.90;;;;;;5052726;28;19909;-51
2021/07/10 04:43:05;;;;;;;;;;;15.50;99.90;;;;;;5052002;28;19935;-53
2021/07/10 04:45:31;;;;;;;;;;;15.50;99.90;;;;;;5052332;28;19928;-51
2021/07/10 04:47:56;;;;;;;;;;;15.50;99.90;;;;;;5034387;28;20015;-52
2021/07/10 04:50:22;;;;;;;;;;;15.50;99.90;;;;;;5052394;28;19909;-51
2021/07/10 04:52:48;;;;;;;;;;;15.50;99.90;;;;;;5052394;28;19944;-51
2021/07/10 04:55:14;;;;;;;;;;;15.50;99.90;;;;;;5051809;28;20290;-51
2021/07/10 04:57:40;;;;;;;;;;;15.60;99.90;;;;;;5052271;28;20278;-51
2021/07/10 05:00:06;;;;;;;;;;;15.60;99.90;;;;;;5052216;28;19995;-50
2021/07/10 05:02:32;;;;;;;;;;;15.60;99.90;;;;;;5052287;28;19920;-49
2021/07/10 05:04:57;;;;;;;;;;;15.60;99.90;;;;;;5052153;28;19913;-51
2021/07/10 05:07:24;;;;;;;;;;;15.60;99.90;;;;;;5051938;28;19955;-50
2021/07/10 05:09:49;;;;;;;;;;;15.60;99.90;;;;;;5051936;28;20398;-52
2021/07/10 05:12:16;;;;;;;;;;;15.60;99.90;;;;;;5049198;28;19931;-53
2021/07/10 05:14:42;;;;;;;;;;;15.60;99.90;;;;;;5051763;28;19919;-51
2021/07/10 05:17:07;;;;;;;;;;;15.60;99.90;;;;;;5051647;28;19908;-51
2021/07/10 05:19:32;;;;;;;;;;;15.70;99.90;;;;;;5051925;28;20505;-49
2021/07/10 05:21:58;;;;;;;;;;;15.70;99.90;;;;;;5051585;28;19916;-51
2021/07/10 05:24:24;;;;;;;;;;;15.80;99.90;;;;;;5051476;28;20363;-50
2021/07/10 05:26:49;;;;;;;;;;;15.80;99.90;;;;;;5051461;28;20363;-51
2021/07/10 05:29:16;;;;;;;;;;;15.80;99.90;;;;;;5030893;28;19939;-52
2021/07/10 05:31:41;;;;;;;;;;;15.90;99.90;;;;;;5051715;28;19913;-52
2021/07/10 05:34:07;;;;;;;;;;;15.90;99.90;;;;;;5051052;28;20050;-50
2021/07/10 05:36:32;;;;;;;;;;;15.90;99.90;;;;;;5051395;28;19959;-52
2021/07/10 05:38:58;;;;;;;;;;;16.00;99.90;;;;;;5051286;28;20472;-54
2021/07/10 05:41:23;;;;;;;;;;;16.00;99.90;;;;;;5051201;28;19909;-55
2021/07/10 05:43:49;;;;;;;;;;;16.00;99.90;;;;;;5051300;28;19966;-52
2021/07/10 05:46:15;;;;;;;;;;;16.10;99.90;;;;;;5033324;28;20021;-53
2021/07/10 05:48:40;;;;;;;;;;;16.10;99.90;;;;;;5051211;28;20370;-53
2021/07/10 05:51:05;;;;;;;;;;;16.10;99.90;;;;;;5051142;28;19909;-55
2021/07/10 05:53:31;;;;;;;;;;;16.10;99.90;;;;;;5050916;28;19909;-55
2021/07/10 05:55:57;;;;;;;;;;;16.00;99.90;;;;;;5050793;28;19979;-53
2021/07/10 05:58:22;;;;;;;;;;;16.00;99.90;;;;;;5051057;28;19905;-53
2021/07/10 06:00:48;;;;;;;;;;;16.00;99.90;;;;;;5051470;28;20681;-54
2021/07/10 06:03:13;;;;;;;;;;;16.10;99.90;;;;;;5051008;28;20019;-53
2021/07/10 06:05:39;;;;;;;;;;;16.10;99.90;;;;;;5050869;28;19912;-53
2021/07/10 06:08:05;;;;;;;;;;;16.10;99.90;;;;;;5050750;28;19916;-54
2021/07/10 06:10:30;;;;;;;;;;;16.20;99.90;;;;;;5032922;28;19917;-55
2021/07/10 06:12:55;;;;;;;;;;;16.20;99.90;;;;;;5050834;28;19915;-52
2021/07/10 06:15:21;;;;;;;;;;;16.30;99.90;;;;;;5050417;28;19909;-55
2021/07/10 06:17:46;;;;;;;;;;;16.30;99.90;;;;;;5050714;28;19951;-54
2021/07/10 06:20:13;;;;;;;;;;;16.40;99.90;;;;;;5050475;28;19909;-57
2021/07/10 06:22:39;;;;;;;;;;;16.40;99.90;;;;;;5050240;28;20023;-54
2021/07/10 06:25:07;;;;;;;;;;;16.50;99.90;;;;;;5050336;28;20403;-57
2021/07/10 06:27:32;;;;;;;;;;;16.50;99.90;;;;;;5043667;28;20313;-52
2021/07/10 06:29:58;;;;;;;;;;;16.50;99.90;;;;;;5050530;28;19954;-56
2021/07/10 06:32:23;;;;;;;;;;;16.50;99.90;;;;;;5050787;28;20012;-56
2021/07/10 06:34:49;;;;;;;;;;;16.60;99.90;;;;;;5050119;28;19935;-54
2021/07/10 06:37:14;;;;;;;;;;;16.60;99.90;;;;;;5050212;28;20279;-55
2021/07/10 06:39:40;;;;;;;;;;;16.70;99.90;;;;;;5050283;28;19951;-55
2021/07/10 06:42:05;;;;;;;;;;;16.80;99.90;;;;;;5050303;28;19917;-54
2021/07/10 06:44:31;;;;;;;;;;;16.80;99.90;;;;;;5048898;28;19909;-55
2021/07/10 06:46:57;;;;;;;;;;;16.80;99.90;;;;;;5049720;28;19924;-53
2021/07/10 06:49:22;;;;;;;;;;;16.80;99.90;;;;;;5050467;28;19979;-53
2021/07/10 06:51:48;;;;;;;;;;;16.80;99.90;;;;;;5050192;28;20007;-54
2021/07/10 06:54:13;;;;;;;;;;;16.80;99.90;;;;;;5050145;28;20009;-53
2021/07/10 06:56:39;;;;;;;;;;;16.80;99.90;;;;;;5049878;28;20375;-52
2021/07/10 06:59:04;;;;;;;;;;;16.80;99.90;;;;;;5050371;28;19932;-55
2021/07/10 07:01:30;;;;;;;;;;;16.80;99.90;;;;;;5050172;28;19916;-56
2021/07/10 07:03:56;;;;;;;;;;;16.80;99.90;;;;;;5049888;28;20025;-53
2021/07/10 07:06:21;;;;;;;;;;;16.70;99.90;;;;;;5049888;28;19915;-52
2021/07/10 07:08:47;;;;;;;;;;;16.70;99.90;;;;;;5050049;28;19909;-55
2021/07/10 07:11:12;;;;;;;;;;;16.70;99.90;;;;;;5050092;28;19962;-55
2021/07/10 07:13:39;;;;;;;;;;;16.70;99.90;;;;;;5049838;28;19909;-53
2021/07/10 07:16:04;;;;;;;;;;;16.70;99.90;;;;;;5049545;28;19962;-55
2021/07/10 07:18:30;;;;;;;;;;;16.70;99.90;;;;;;5032252;28;19913;-54
2021/07/10 07:20:55;;;;;;;;;;;16.70;99.90;;;;;;5049809;28;20047;-52
2021/07/10 07:23:20;;;;;;;;;;;16.70;99.90;;;;;;5050045;28;19920;-54
2021/07/10 07:25:46;;;;;;;;;;;16.70;99.90;;;;;;5049893;28;19908;-52
2021/07/10 07:28:12;;;;;;;;;;;16.70;99.90;;;;;;5050117;28;19915;-53
2021/07/10 07:30:37;;;;;;;;;;;16.70;99.90;;;;;;5050294;28;20290;-52
2021/07/10 07:33:03;;;;;;;;;;;16.70;99.90;;;;;;5049745;28;19997;-52
2021/07/10 07:35:29;;;;;;;;;;;16.70;99.90;;;;;;5049642;28;20015;-54
2021/07/10 07:37:54;;;;;;;;;;;16.70;99.90;;;;;;5048987;28;19999;-51
2021/07/10 07:40:20;;;;;;;;;;;16.70;99.90;;;;;;5049721;28;19998;-52
2021/07/10 07:42:46;;;;;;;;;;;16.70;99.90;;;;;;5049618;28;19920;-51
2021/07/10 07:45:12;;;;;;;;;;;16.70;99.90;;;;;;5049694;28;20004;-52
2021/07/10 07:47:38;;;;;;;;;;;16.70;99.90;;;;;;5049731;28;19948;-51
2021/07/10 07:50:05;;;;;;;;;;;16.70;99.90;;;;;;5049653;28;19916;-52
2021/07/10 07:52:30;;;;;;;;;;;16.70;99.90;;;;;;5049784;28;19913;-52
2021/07/10 07:54:55;;;;;;;;;;;16.70;99.90;;;;;;5049356;28;20433;-56
2021/07/10 07:57:21;;;;;;;;;;;16.70;99.90;;;;;;5052687;28;19913;-52
2021/07/10 07:59:47;;;;;;;;;;;16.70;99.90;;;;;;5053782;28;19909;-52
2021/07/10 08:02:12;;;;;;;;;;;16.70;99.90;;;;;;5053393;28;19920;-56
2021/07/10 08:04:38;;;;;;;;;;;16.70;99.90;;;;;;5053357;28;19909;-52
2021/07/10 08:07:03;;;;;;;;;;;16.80;99.90;;;;;;5052910;28;19912;-52
2021/07/10 08:09:29;;;;;;;;;;;16.80;99.90;;;;;;5035303;28;19913;-52
2021/07/10 08:11:55;;;;;;;;;;;16.80;99.90;;;;;;5052921;28;19909;-52
2021/07/10 08:14:22;;;;;;;;;;;16.80;99.90;;;;;;5053145;28;19909;-51
2021/07/10 08:16:47;;;;;;;;;;;16.90;99.90;;;;;;5053091;28;19917;-52
2021/07/10 08:19:13;;;;;;;;;;;17.00;99.90;;;;;;5052940;28;20294;-55
2021/07/10 08:21:38;;;;;;;;;;;17.00;99.90;;;;;;5052719;28;19917;-53
2021/07/10 08:24:04;;;;;;;;;;;17.10;99.90;;;;;;5052656;28;20012;-52
2021/07/10 08:26:30;;;;;;;;;;;17.20;99.90;;;;;;5052486;28;19940;-53
2021/07/10 08:28:55;;;;;;;;;;;17.20;99.90;;;;;;5052923;28;20374;-57
2021/07/10 08:31:21;;;;;;;;;;;17.30;99.90;;;;;;5052906;28;19909;-57
2021/07/10 08:33:46;;;;;;;;;;;17.40;99.90;;;;;;5052611;28;19909;-53
2021/07/10 08:36:12;;;;;;;;;;;17.50;99.90;;;;;;5052059;28;20331;-54
2021/07/10 08:38:38;;;;;;;;;;;17.70;99.90;;;;;;5044287;28;20334;-57
2021/07/10 08:41:07;;;;;;;;;;;17.90;99.90;;;;;;5052420;28;19913;-56
2021/07/10 08:43:33;;;;;;;;;;;18.20;99.90;;;;;;5052170;28;19960;-52
2021/07/10 08:46:01;;;;;;;;;;;18.50;99.90;;;;;;5034069;28;20453;-56
2021/07/10 08:48:26;;;;;;;;;;;18.90;99.90;;;;;;5052125;28;20306;-53
2021/07/10 08:50:52;;;;;;;;;;;19.20;99.90;;;;;;5052323;28;19916;-57
2021/07/10 08:53:17;;;;;;;;;;;19.50;99.90;;;;;;5052278;28;19970;-53
2021/07/10 08:55:43;;;;;;;;;;;19.60;99.90;;;;;;5052368;28;20623;-52
2021/07/10 08:58:08;;;;;;;;;;;19.80;99.90;;;;;;5052596;28;19913;-56
2021/07/10 09:00:36;;;;;;;;;;;19.90;99.90;;;;;;5052407;28;19909;-56
2021/07/10 09:03:01;;;;;;;;;;;19.70;99.90;;;;;;5052303;28;20007;-54
2021/07/10 09:05:27;;;;;;;;;;;19.60;99.90;;;;;;5051760;28;20345;-55
2021/07/10 09:08:12;;;;;;;;;;;19.60;99.90;;;;;;5051289;28;20000;-55
2021/07/10 09:10:38;;;;;;;;;;;19.50;99.90;;;;;;5051961;28;19909;-55
2021/07/10 09:13:04;;;;;;;;;;;19.50;99.90;;;;;;5051826;28;20026;-55
2021/07/10 09:15:30;;;;;;;;;;;19.50;99.90;;;;;;5051706;28;20414;-58
2021/07/10 09:17:55;;;;;;;;;;;19.40;99.90;;;;;;5051939;28;19913;-58
2021/07/10 09:20:21;;;;;;;;;;;19.50;99.90;;;;;;5051994;28;19908;-57
2021/07/10 09:22:47;;;;;;;;;;;19.60;99.90;;;;;;5051733;28;19912;-57
2021/07/10 09:25:26;;;;;;;;;;;19.70;99.90;;;;;;5051671;28;19916;-57
2021/07/10 09:27:53;;;;;;;;;;;19.70;99.90;;;;;;5051608;28;20375;-56
2021/07/10 09:30:38;;;;;;;;;;;19.70;99.90;;;;;;5051993;28;19920;-56
2021/07/10 09:33:10;;;;;;;;;;;19.80;99.90;;;;;;5051471;28;19931;-56
2021/07/10 09:35:46;;;;;;;;;;;20.00;99.90;;;;;;5051371;28;19909;-53
2021/07/10 09:38:24;;;;;;;;;;;20.10;99.90;;;;;;5051431;28;20409;-58
2021/07/10 09:41:00;;;;;;;;;;;20.20;99.90;;;;;;5051500;28;20323;-54
2021/07/10 09:43:26;;;;;;;;;;;20.10;99.90;;;;;;5049145;28;20344;-53
2021/07/10 09:45:52;;;;;;;;;;;20.10;99.90;;;;;;5051051;28;19909;-54
2021/07/10 09:48:18;;;;;;;;;;;20.10;99.90;;;;;;5051572;28;19919;-57
2021/07/10 09:50:43;;;;;;;;;;;20.20;99.90;;;;;;5051519;28;19908;-56
2021/07/10 09:53:22;;;;;;;;;;;20.30;99.90;;;;;;5033258;28;19919;-55
2021/07/10 09:55:47;;;;;;;;;;;20.20;99.90;;;;;;5047439;28;19909;-55
2021/07/10 09:58:30;;;;;;;;;;;20.20;99.90;;;;;;5051629;28;19916;-58
2021/07/10 10:00:55;;;;;;;;;;;20.20;99.90;;;;;;5048715;28;20436;-56
2021/07/10 10:03:31;;;;;;;;;;;20.40;99.90;;;;;;5051242;28;19913;-54
2021/07/10 10:05:56;;;;;;;;;;;20.50;99.90;;;;;;5048210;28;20489;-58
2021/07/10 10:08:31;;;;;;;;;;;20.40;99.90;;;;;;5050940;28;19944;-53
2021/07/10 10:10:56;;;;;;;;;;;20.40;99.90;;;;;;5048625;28;20424;-57
2021/07/10 10:13:22;;;;;;;;;;;20.40;99.90;;;;;;5051239;28;19909;-53
2021/07/10 10:15:49;;;;;;;;;;;20.50;99.90;;;;;;5050638;28;20377;-58
2021/07/10 10:18:16;;;;;;;;;;;20.70;99.90;;;;;;5050830;28;19944;-55
2021/07/10 10:20:42;;;;;;;;;;;20.80;99.90;;;;;;5050527;28;20004;-52
2021/07/10 10:23:08;;;;;;;;;;;20.90;99.90;;;;;;5050917;28;19913;-57
2021/07/10 10:25:34;;;;;;;;;;;21.00;99.90;;;;;;5050562;28;20373;-54
2021/07/10 10:28:00;;;;;;;;;;;21.10;99.90;;;;;;5050982;28;19921;-55
2021/07/10 10:30:26;;;;;;;;;;;21.20;99.90;;;;;;5051292;28;20260;-57
2021/07/10 10:32:51;;;;;;;;;;;21.30;99.90;;;;;;5050420;28;20051;-54
2021/07/10 10:35:18;;;;;;;;;;;21.50;99.90;;;;;;5050385;28;19909;-57
2021/07/10 10:37:44;;;;;;;;;;;21.80;99.90;;;;;;5050652;28;20003;-57
2021/07/10 10:40:10;;;;;;;;;;;22.00;99.90;;;;;;5050184;28;20177;-53
2021/07/10 10:42:36;;;;;;;;;;;22.10;99.90;;;;;;5050577;28;19912;-56
2021/07/10 10:45:03;;;;;;;;;;;22.20;99.90;;;;;;5049981;28;19916;-58
2021/07/10 10:47:40;;;;;;;;;;;22.30;99.90;;;;;;5049998;28;19924;-55
2021/07/10 10:50:25;;;;;;;;;;;22.20;99.90;;;;;;5050120;28;19909;-55
2021/07/10 10:52:53;;;;;;;;;;;22.30;99.90;;;;;;5050257;28;20059;-61
2021/07/10 10:55:21;;;;;;;;;;;22.20;99.90;;;;;;5049817;28;19915;-57
2021/07/10 10:57:48;;;;;;;;;;;22.40;99.90;;;;;;5050269;28;19913;-56
2021/07/10 11:00:16;;;;;;;;;;;22.60;99.90;;;;;;5050050;28;20113;-53
2021/07/10 11:02:50;;;;;;;;;;;23.00;99.90;;;;;;5050077;28;19924;-55
2021/07/10 11:05:36;;;;;;;;;;;23.10;99.90;;;;;;5045329;28;19909;-56
2021/07/10 11:08:20;;;;;;;;;;;23.20;99.90;;;;;;5048956;28;19909;-54
2021/07/10 11:10:46;;;;;;;;;;;23.30;99.90;;;;;;5049788;28;19909;-55
2021/07/10 11:13:38;;;;;;;;;;;23.50;99.90;;;;;;5050293;28;19909;-58
2021/07/10 11:16:08;;;;;;;;;;;23.40;99.90;;;;;;5045447;28;19909;-55
2021/07/10 11:18:54;;;;;;;;;;;23.40;99.90;;;;;;5050226;28;19909;-53
2021/07/10 11:21:35;;;;;;;;;;;23.50;99.90;;;;;;5049550;28;19952;-57
2021/07/10 11:24:25;;;;;;;;;;;23.60;99.90;;;;;;5032088;28;19913;-57
2021/07/10 11:26:53;;;;;;;;;;;23.80;99.90;;;;;;5050354;28;19909;-54
2021/07/10 11:29:29;;;;;;;;;;;24.00;99.90;;;;;;5049852;28;20500;-56
2021/07/10 11:32:14;;;;;;;;;;;24.00;99.90;;;;;;5048941;28;19913;-58
2021/07/10 11:34:42;;;;;;;;;;;24.10;99.90;;;;;;5053547;28;19912;-56
2021/07/10 11:37:12;;;;;;;;;;;24.00;99.90;;;;;;5053611;28;19916;-56
2021/07/10 11:39:38;;;;;;;;;;;23.70;99.90;;;;;;5053606;28;19913;-57
2021/07/10 11:42:16;;;;;;;;;;;23.80;99.90;;;;;;5053781;28;19917;-57
2021/07/10 11:44:42;;;;;;;;;;;23.90;99.90;;;;;;5053425;28;19915;-55
2021/07/10 11:47:10;;;;;;;;;;;23.80;99.90;;;;;;5053143;28;20410;-55
2021/07/10 11:49:35;;;;;;;;;;;23.70;99.90;;;;;;5053960;28;20351;-52
2021/07/10 11:52:12;;;;;;;;;;;23.40;99.90;;;;;;5053606;28;19924;-53
2021/07/10 11:54:39;;;;;;;;;;;23.10;99.90;;;;;;5053748;28;20323;-56
2021/07/10 11:57:05;;;;;;;;;;;23.10;99.90;;;;;;5053879;28;19909;-56
2021/07/10 11:59:35;;;;;;;;;;;23.30;99.90;;;;;;5054191;28;19916;-53
2021/07/10 12:02:16;;;;;;;;;;;23.40;99.90;;;;;;5053477;28;20271;-54
2021/07/10 12:05:17;;;;;;;;;;;23.50;99.90;;;;;;5053506;28;20597;-51
2021/07/10 12:07:44;;;;;;;;;;;23.50;99.90;;;;;;4972236;28;20525;-54
2021/07/10 12:10:09;;;;;;;;;;;23.40;99.90;;;;;;5034847;28;19962;-53
2021/07/10 12:12:51;;;;;;;;;;;23.50;99.90;;;;;;5053372;28;20279;-53
2021/07/10 12:15:18;;;;;;;;;;;23.50;99.90;;;;;;5047460;28;19916;-56
2021/07/10 12:17:48;;;;;;;;;;;23.50;99.90;;;;;;5053501;28;20030;-53
2021/07/10 12:20:19;;;;;;;;;;;23.40;99.90;;;;;;5053145;28;20008;-53
2021/07/10 12:22:49;;;;;;;;;;;23.30;99.90;;;;;;5053138;28;20012;-53
2021/07/10 12:25:15;;;;;;;;;;;23.20;99.90;;;;;;5045156;28;19909;-53
2021/07/10 12:27:40;;;;;;;;;;;23.10;99.90;;;;;;5052939;28;19909;-54
2021/07/10 12:30:06;;;;;;;;;;;23.10;99.90;;;;;;5053364;28;19909;-56
2021/07/10 12:32:32;;;;;;;;;;;23.00;99.90;;;;;;5053073;28;19932;-56
2021/07/10 12:34:58;;;;;;;;;;;23.10;99.90;;;;;;5052589;28;19944;-54
2021/07/10 12:37:28;;;;;;;;;;;23.10;99.90;;;;;;5053145;28;19912;-54
2021/07/10 12:40:09;;;;;;;;;;;23.20;99.90;;;;;;5052888;28;19974;-55
2021/07/10 12:42:35;;;;;;;;;;;23.20;99.90;;;;;;5051228;28;19917;-55
2021/07/10 12:45:01;;;;;;;;;;;23.30;99.90;;;;;;5052256;28;20001;-53
2021/07/10 12:47:28;;;;;;;;;;;23.30;99.90;;;;;;5052561;28;19917;-57
2021/07/10 12:49:58;;;;;;;;;;;23.30;99.90;;;;;;5052636;28;19917;-55
2021/07/10 12:52:28;;;;;;;;;;;23.40;99.90;;;;;;5034573;28;19909;-52
2021/07/10 12:54:56;;;;;;;;;;;23.30;99.90;;;;;;5052246;28;19916;-50
2021/07/10 12:57:22;;;;;;;;;;;23.20;99.90;;;;;;5052853;28;19915;-51
2021/07/10 12:59:52;;;;;;;;;;;23.30;99.90;;;;;;5052967;28;20345;-53
2021/07/10 13:02:22;;;;;;;;;;;23.30;99.90;;;;;;5051716;28;19913;-53
2021/07/10 13:04:48;;;;;;;;;;;23.50;99.90;;;;;;5052393;28;19956;-51
2021/07/10 13:07:21;;;;;;;;;;;23.80;99.90;;;;;;5052230;28;20275;-53
2021/07/10 13:09:47;;;;;;;;;;;23.90;99.40;;;;;;5052386;28;20260;-52
2021/07/10 13:12:12;;;;;;;;;;;23.90;99.90;;;;;;5052006;28;20023;-52
2021/07/10 13:14:38;;;;;;;;;;;24.00;99.90;;;;;;5051975;28;19916;-55
2021/07/10 13:17:13;;;;;;;;;;;23.80;99.50;;;;;;5051938;28;19909;-52
2021/07/10 13:19:38;;;;;;;;;;;23.50;99.90;;;;;;5052623;28;19913;-54
2021/07/10 13:22:04;;;;;;;;;;;23.30;99.90;;;;;;5051841;28;19913;-56
2021/07/10 13:24:29;;;;;;;;;;;23.20;99.90;;;;;;5051652;28;19912;-55
2021/07/10 13:26:55;;;;;;;;;;;23.30;99.90;;;;;;5052092;28;19909;-52
2021/07/10 13:29:26;;;;;;;;;;;23.40;99.90;;;;;;5052178;28;19936;-54
2021/07/10 13:31:54;;;;;;;;;;;23.50;99.90;;;;;;5048864;28;19909;-55
2021/07/10 13:34:21;;;;;;;;;;;23.40;99.90;;;;;;5051782;28;19963;-54
2021/07/10 13:36:48;;;;;;;;;;;23.30;99.90;;;;;;5051363;28;20286;-52
2021/07/10 13:39:17;;;;;;;;;;;23.20;99.90;;;;;;5051741;28;19909;-52
2021/07/10 13:41:52;;;;;;;;;;;23.30;99.90;;;;;;5051362;28;19947;-53
2021/07/10 13:44:20;;;;;;;;;;;23.40;99.90;;;;;;5043155;28;19915;-51
2021/07/10 13:46:47;;;;;;;;;;;23.50;99.90;;;;;;5050664;28;19917;-54
2021/07/10 13:49:19;;;;;;;;;;;23.80;99.90;;;;;;5085504;22;20618;-58
2021/07/10 13:51:52;;;;;;;;;;;23.90;99.90;;;;;;5066531;28;19999;-58
2021/07/10 13:54:31;;;;;;;;;;;23.70;99.60;;;;;;5058793;28;19913;-59
2021/07/10 13:57:15;;;;;;;;;;;23.50;99.90;;;;;;5068853;28;19909;-58
2021/07/10 13:59:59;;;;;;;;;;;23.40;99.90;;;;;;5067852;28;19911;-54
2021/07/10 14:02:25;;;;;;;;;;;23.50;99.90;;;;;;5064472;28;19970;-57
2021/07/10 14:04:58;;;;;;;;;;;23.40;99.90;;;;;;5066516;28;19909;-57
2021/07/10 14:07:23;;;;;;;;;;;23.50;99.90;;;;;;5070310;28;19992;-53
2021/07/10 14:09:49;;;;;;;;;;;23.50;99.90;;;;;;5065889;28;20374;-56
2021/07/10 14:12:14;;;;;;;;;;;23.50;99.90;;;;;;5052769;28;19909;-58
2021/07/10 14:14:39;;;;;;;;;;;23.50;99.90;;;;;;5053181;28;19915;-56
2021/07/10 14:17:05;;;;;;;;;;;23.70;99.90;;;;;;5066021;28;20116;-56